Time;durP1;ratioP1;P1;durP2;ratioP2;P2;SDS_P1;SDS_P2;PMS_P1;PMS_P2;Temp;Humidity;BMP_temperature;BMP_pressure;BME280_temperature;BME280_humidity;BME280_pressure;Samples;Min_cycle;Max_cycle;Signal;HPM_P1;HPM_P2
2022/04/18 00:02:04;;;;;;;4.30;1.90;;;7.50;53.10;;;;;;5048312;28;20036;-71
2022/04/18 00:04:29;;;;;;;2.65;1.23;;;7.50;53.20;;;;;;5050062;28;20048;-71
2022/04/18 00:06:55;;;;;;;2.20;1.50;;;7.40;53.20;;;;;;5061525;28;20037;-71
2022/04/18 00:09:20;;;;;;;3.97;1.48;;;7.40;53.30;;;;;;5036410;28;20100;-71
2022/04/18 00:11:46;;;;;;;2.90;1.70;;;7.30;53.40;;;;;;5041744;28;20064;-71
2022/04/18 00:14:11;;;;;;;2.08;1.40;;;7.30;53.60;;;;;;5035671;28;20065;-70
2022/04/18 00:16:37;;;;;;;1.52;1.30;;;7.30;54.40;;;;;;5029626;28;20117;-71
2022/04/18 00:19:02;;;;;;;1.58;1.40;;;7.20;53.70;;;;;;5021316;28;20048;-71
2022/04/18 00:21:28;;;;;;;1.60;1.13;;;7.20;53.80;;;;;;5010087;28;20094;-71
2022/04/18 00:23:53;;;;;;;3.13;1.52;;;7.20;53.90;;;;;;5010390;28;20432;-71
2022/04/18 00:26:19;;;;;;;2.00;1.40;;;7.10;54.00;;;;;;5057351;28;20045;-71
2022/04/18 00:28:44;;;;;;;1.60;1.38;;;7.10;54.10;;;;;;5046467;28;20041;-71
2022/04/18 00:31:10;;;;;;;2.05;1.50;;;7.10;54.20;;;;;;5024747;28;20033;-71
2022/04/18 00:33:36;;;;;;;2.85;1.50;;;7.00;54.20;;;;;;5042445;28;20040;-71
2022/04/18 00:36:02;;;;;;;2.60;1.30;;;6.90;54.30;;;;;;5028909;28;20035;-71
2022/04/18 00:38:28;;;;;;;3.10;1.58;;;6.90;54.50;;;;;;5017000;28;20481;-71
2022/04/18 00:40:54;;;;;;;2.05;1.70;;;6.90;54.60;;;;;;5038777;28;20037;-70
2022/04/18 00:43:39;;;;;;;2.17;1.40;;;6.80;54.70;;;;;;5022323;28;20052;-71
2022/04/18 00:46:05;;;;;;;2.25;1.50;;;6.80;54.90;;;;;;5048608;28;20059;-72
2022/04/18 00:48:31;;;;;;;3.75;1.15;;;6.70;54.80;;;;;;5051953;28;20362;-71
2022/04/18 00:51:02;;;;;;;3.20;1.40;;;6.70;54.90;;;;;;5035255;28;20485;-70
2022/04/18 00:53:28;;;;;;;2.47;1.30;;;6.70;55.20;;;;;;4991294;28;20529;-70
2022/04/18 00:55:53;;;;;;;3.45;1.77;;;6.70;55.10;;;;;;5012260;28;20131;-72
2022/04/18 00:58:19;;;;;;;1.73;1.50;;;6.70;55.20;;;;;;5039749;28;20060;-72
2022/04/18 01:00:44;;;;;;;3.17;1.30;;;6.60;55.30;;;;;;4998636;28;20038;-73
2022/04/18 01:03:11;;;;;;;1.55;1.30;;;6.60;55.50;;;;;;4984155;28;20036;-71
2022/04/18 01:05:36;;;;;;;3.40;1.42;;;6.50;55.50;;;;;;5016678;28;20112;-70
2022/04/18 01:08:02;;;;;;;3.40;1.55;;;6.50;55.70;;;;;;5032576;28;20127;-71
2022/04/18 01:10:28;;;;;;;2.30;1.40;;;6.50;55.70;;;;;;5017200;28;20786;-71
2022/04/18 01:12:53;;;;;;;2.15;1.33;;;6.50;55.80;;;;;;5023031;28;20405;-71
2022/04/18 01:15:19;;;;;;;2.45;1.40;;;6.40;55.90;;;;;;5029174;28;20552;-71
2022/04/18 01:17:44;;;;;;;1.85;1.52;;;6.30;56.00;;;;;;5029209;28;20031;-72
2022/04/18 01:20:10;;;;;;;2.45;1.60;;;6.30;56.10;;;;;;5034546;28;20029;-71
2022/04/18 01:22:36;;;;;;;1.67;1.50;;;6.30;56.20;;;;;;5002740;28;20052;-71
2022/04/18 01:30:30;;;;;;;2.50;1.65;;;6.00;56.60;;;;;;5017123;28;20120;-73
2022/04/18 01:32:56;;;;;;;3.25;1.77;;;6.00;56.60;;;;;;4999545;28;20112;-71
2022/04/18 01:35:21;;;;;;;1.30;1.20;;;6.00;57.40;;;;;;5052882;28;20124;-72
2022/04/18 01:37:47;;;;;;;1.90;1.40;;;5.90;56.90;;;;;;5056369;28;20116;-72
2022/04/18 01:40:12;;;;;;;2.28;1.48;;;5.90;57.00;;;;;;5027028;28;20037;-71
2022/04/18 01:42:38;;;;;;;2.70;1.30;;;5.80;57.10;;;;;;5002013;28;20068;-71
2022/04/18 01:45:04;;;;;;;2.75;1.77;;;5.80;57.20;;;;;;5043759;28;20029;-71
2022/04/18 01:47:30;;;;;;;1.65;1.23;;;5.80;57.30;;;;;;5029108;28;20025;-71
2022/04/18 01:49:55;;;;;;;2.80;1.50;;;5.80;57.40;;;;;;5040671;28;20025;-70
2022/04/18 01:52:21;;;;;;;2.88;1.50;;;5.80;57.40;;;;;;5025107;28;20035;-71
2022/04/18 01:54:46;;;;;;;1.88;1.42;;;5.80;57.50;;;;;;5036668;28;20043;-71
2022/04/18 01:57:12;;;;;;;4.55;1.55;;;5.70;57.60;;;;;;5012376;28;20039;-70
2022/04/18 01:59:37;;;;;;;3.08;1.60;;;5.70;57.60;;;;;;5028605;28;20063;-71
2022/04/18 02:02:03;;;;;;;2.58;1.35;;;5.60;57.70;;;;;;5020489;28;20024;-70
2022/04/18 02:04:28;;;;;;;1.98;1.45;;;5.70;57.80;;;;;;5012365;28;20062;-71
2022/04/18 02:06:54;;;;;;;2.40;1.52;;;5.60;57.90;;;;;;5027025;28;20123;-71
2022/04/18 02:09:19;;;;;;;2.45;1.65;;;5.70;58.10;;;;;;5057111;28;20649;-71
2022/04/18 02:11:45;;;;;;;1.58;1.48;;;5.60;58.00;;;;;;5052268;28;20485;-71
2022/04/18 02:14:11;;;;;;;3.30;1.30;;;5.60;58.10;;;;;;5021865;28;20099;-70
2022/04/18 02:16:36;;;;;;;1.60;1.50;;;5.60;58.10;;;;;;5030117;28;20045;-72
2022/04/18 02:19:02;;;;;;;5.80;1.80;;;5.60;58.10;;;;;;5028893;28;20103;-70
2022/04/18 02:21:28;;;;;;;3.75;2.00;;;5.60;58.30;;;;;;5026753;28;20574;-71
2022/04/18 02:23:53;;;;;;;3.90;2.05;;;5.50;58.30;;;;;;5017104;28;20036;-71
2022/04/18 02:26:19;;;;;;;2.97;1.95;;;5.50;58.50;;;;;;5036285;28;20453;-74
2022/04/18 02:28:45;;;;;;;3.45;1.73;;;5.40;58.50;;;;;;5027240;28;20028;-71
2022/04/18 02:31:10;;;;;;;2.13;1.48;;;5.40;58.60;;;;;;5013952;28;20032;-71
2022/04/18 02:33:36;;;;;;;3.78;1.83;;;5.40;58.70;;;;;;5056743;28;20043;-71
2022/04/18 02:36:02;;;;;;;3.28;1.67;;;5.40;58.80;;;;;;5021652;28;20406;-70
2022/04/18 02:38:28;;;;;;;2.72;1.27;;;5.40;58.80;;;;;;5007532;28;20049;-71
2022/04/18 02:40:53;;;;;;;3.28;1.27;;;5.40;58.80;;;;;;5036790;28;20125;-71
2022/04/18 02:43:19;;;;;;;2.42;1.75;;;5.30;58.90;;;;;;5035416;28;20498;-71
2022/04/18 02:45:44;;;;;;;1.73;1.30;;;5.30;59.00;;;;;;5029842;28;20098;-71
2022/04/18 02:48:10;;;;;;;3.72;1.73;;;5.30;59.00;;;;;;5033448;28;20064;-71
2022/04/18 02:50:35;;;;;;;2.95;1.65;;;5.30;59.00;;;;;;5013466;28;20025;-71
2022/04/18 02:53:01;;;;;;;3.53;1.27;;;5.20;59.00;;;;;;5042568;28;20045;-71
2022/04/18 02:55:26;;;;;;;4.13;1.50;;;5.20;59.20;;;;;;5024727;28;20037;-71
2022/04/18 02:57:52;;;;;;;4.40;1.73;;;5.20;59.30;;;;;;5057407;28;20036;-72
2022/04/18 03:00:18;;;;;;;1.85;1.33;;;5.20;59.40;;;;;;5038384;28;20041;-71
2022/04/18 03:02:43;;;;;;;3.05;1.58;;;5.20;59.50;;;;;;5000851;28;20037;-71
2022/04/18 03:05:10;;;;;;;2.00;1.50;;;5.20;59.50;;;;;;5033640;28;20029;-71
2022/04/18 03:07:35;;;;;;;1.70;1.15;;;5.10;59.50;;;;;;5015886;28;20056;-71
2022/04/18 03:10:01;;;;;;;2.72;1.60;;;5.20;59.60;;;;;;5028118;28;20025;-71
2022/04/18 03:12:26;;;;;;;2.17;1.40;;;5.10;59.60;;;;;;5036792;28;20041;-70
2022/04/18 03:14:52;;;;;;;1.83;1.30;;;5.10;59.60;;;;;;5011904;28;20029;-72
2022/04/18 03:17:17;;;;;;;1.90;1.40;;;5.10;59.70;;;;;;5049718;28;20051;-71
2022/04/18 03:19:43;;;;;;;1.67;1.30;;;5.10;59.70;;;;;;5062560;28;20079;-71
2022/04/18 03:22:08;;;;;;;2.50;1.25;;;5.10;59.80;;;;;;5038448;28;20025;-70
2022/04/18 03:24:34;;;;;;;1.90;1.33;;;5.10;59.80;;;;;;5045516;28;20035;-70
2022/04/18 03:27:01;;;;;;;1.63;1.23;;;5.00;59.90;;;;;;5051233;28;20033;-71
2022/04/18 03:29:26;;;;;;;1.75;1.63;;;5.00;60.00;;;;;;4997376;28;20037;-71
2022/04/18 03:31:53;;;;;;;1.92;1.42;;;5.00;60.10;;;;;;4995650;28;20072;-71
2022/04/18 03:34:19;;;;;;;2.33;1.30;;;5.00;60.10;;;;;;5049463;28;20047;-72
2022/04/18 03:42:30;;;;;;;4.83;1.63;;;4.90;60.10;;;;;;4964802;28;20072;-70
2022/04/18 03:45:14;;;;;;;2.22;1.50;;;4.80;60.00;;;;;;4969915;28;20743;-71
2022/04/18 03:47:39;;;;;;;1.45;1.20;;;4.80;60.60;;;;;;4938934;28;20038;-71
2022/04/18 03:50:05;;;;;;;2.28;1.60;;;4.80;60.40;;;;;;4977801;28;20092;-70
2022/04/18 03:52:30;;;;;;;3.15;1.67;;;4.80;60.40;;;;;;4953555;28;20042;-71
2022/04/18 03:54:56;;;;;;;2.40;1.52;;;4.70;60.50;;;;;;4938333;28;20039;-70
2022/04/18 03:57:22;;;;;;;2.83;1.48;;;4.70;60.50;;;;;;4959741;28;20046;-71
2022/04/18 03:59:47;;;;;;;2.58;1.50;;;4.70;60.70;;;;;;4955310;28;20046;-71
2022/04/18 04:02:13;;;;;;;1.83;1.17;;;4.60;60.70;;;;;;4972623;28;20038;-71
2022/04/18 04:04:39;;;;;;;1.88;1.27;;;4.60;60.80;;;;;;4950381;28;20049;-71
2022/04/18 04:07:05;;;;;;;2.42;1.60;;;4.50;60.80;;;;;;4964279;28;20046;-71
2022/04/18 04:09:31;;;;;;;2.35;1.73;;;4.50;61.00;;;;;;4971079;28;20126;-71
2022/04/18 04:11:56;;;;;;;3.28;1.65;;;4.50;61.20;;;;;;4958318;28;20074;-72
2022/04/18 04:14:22;;;;;;;2.20;1.40;;;4.50;61.20;;;;;;4966080;28;20053;-71
2022/04/18 04:16:47;;;;;;;2.35;1.45;;;4.50;61.30;;;;;;5011490;28;20037;-70
2022/04/18 04:19:13;;;;;;;2.03;1.50;;;4.50;61.30;;;;;;5037875;28;20603;-71
2022/04/18 04:21:38;;;;;;;2.58;1.60;;;4.50;61.40;;;;;;5043638;28;20037;-70
2022/04/18 04:24:04;;;;;;;3.15;1.33;;;4.40;61.40;;;;;;5021736;28;20432;-70
2022/04/18 04:26:30;;;;;;;2.22;1.58;;;4.40;61.50;;;;;;5022692;28;20177;-71
2022/04/18 04:28:55;;;;;;;2.75;1.45;;;4.40;61.60;;;;;;5048528;28;20041;-72
2022/04/18 04:31:21;;;;;;;1.23;1.10;;;4.40;61.70;;;;;;5009616;28;20513;-71
2022/04/18 04:33:46;;;;;;;2.15;1.50;;;4.40;61.90;;;;;;5043657;28;20147;-71
2022/04/18 04:36:18;;;;;;;2.45;1.73;;;4.40;62.00;;;;;;5024112;28;20043;-71
2022/04/18 04:38:43;;;;;;;;;;;4.30;62.00;;;;;;5034647;28;20040;-71
2022/04/18 04:41:09;;;;;;;1.80;1.60;;;4.30;61.60;;;;;;5011954;28;19913;-71
2022/04/18 04:43:34;;;;;;;2.95;1.63;;;4.30;61.60;;;;;;5052952;28;20029;-71
2022/04/18 04:46:00;;;;;;;3.20;1.40;;;4.30;61.70;;;;;;5043451;28;20029;-72
2022/04/18 04:48:26;;;;;;;2.35;1.80;;;4.30;61.80;;;;;;5050051;28;20029;-71
2022/04/18 04:50:52;;;;;;;4.47;1.60;;;4.30;62.00;;;;;;5060200;28;20489;-71
2022/04/18 04:53:18;;;;;;;1.90;1.73;;;4.30;62.10;;;;;;5040611;28;20563;-71
2022/04/18 04:55:43;;;;;;;3.35;1.55;;;4.30;62.20;;;;;;5017620;28;20034;-71
2022/04/18 04:58:10;;;;;;;1.65;1.35;;;4.30;62.30;;;;;;5024721;28;20091;-71
2022/04/18 05:00:36;;;;;;;2.50;1.60;;;4.30;62.40;;;;;;5041306;28;20037;-73
2022/04/18 05:03:01;;;;;;;1.48;1.25;;;4.30;62.60;;;;;;5028437;28;20201;-72
2022/04/18 05:05:27;;;;;;;2.85;1.38;;;4.30;62.60;;;;;;5020652;28;20686;-71
2022/04/18 05:07:53;;;;;;;2.45;1.40;;;4.30;62.60;;;;;;5008655;28;20490;-72
2022/04/18 05:10:18;;;;;;;1.67;1.52;;;4.30;62.70;;;;;;5045163;28;20056;-71
2022/04/18 05:12:44;;;;;;;2.35;1.40;;;4.30;62.70;;;;;;5037595;28;20033;-70
2022/04/18 05:15:10;;;;;;;2.20;1.52;;;4.30;62.80;;;;;;5026226;28;20037;-71
2022/04/18 05:17:35;;;;;;;2.00;1.55;;;4.30;62.80;;;;;;5025536;28;20033;-70
2022/04/18 05:20:03;;;;;;;3.15;1.35;;;4.30;62.80;;;;;;5034503;28;20047;-71
2022/04/18 05:22:28;;;;;;;2.28;1.35;;;4.30;62.90;;;;;;5009226;28;20037;-72
2022/04/18 05:24:55;;;;;;;1.98;1.52;;;4.30;63.00;;;;;;5007829;28;20086;-71
2022/04/18 05:27:21;;;;;;;1.67;1.58;;;4.30;63.10;;;;;;5032866;28;20102;-71
2022/04/18 05:29:46;;;;;;;2.53;1.70;;;4.40;63.20;;;;;;5036403;28;20973;-70
2022/04/18 05:32:12;;;;;;;2.53;1.33;;;4.40;63.20;;;;;;5037591;28;20125;-71
2022/04/18 05:34:37;;;;;;;1.83;1.45;;;4.40;63.20;;;;;;4983319;28;22378;-71
2022/04/18 05:37:04;;;;;;;4.25;1.88;;;4.40;63.30;;;;;;5056372;28;20025;-73
2022/04/18 05:39:30;;;;;;;1.75;1.58;;;4.50;63.40;;;;;;5042155;28;20052;-73
2022/04/18 05:41:58;;;;;;;2.03;1.33;;;4.50;63.40;;;;;;5006437;28;20135;-74
2022/04/18 05:44:23;;;;;;;2.38;1.70;;;4.60;63.30;;;;;;5026495;28;20587;-73
2022/04/18 05:46:49;;;;;;;2.83;1.83;;;4.60;63.30;;;;;;5034115;28;20135;-74
2022/04/18 05:49:15;;;;;;;5.00;2.00;;;4.70;63.50;;;;;;5036167;28;20045;-73
2022/04/18 05:51:40;;;;;;;2.92;1.85;;;4.70;63.50;;;;;;5001829;28;20044;-74
2022/04/18 05:54:06;;;;;;;4.10;2.53;;;4.80;63.50;;;;;;5020946;28;20231;-75
2022/04/18 05:56:32;;;;;;;3.88;1.95;;;4.80;63.40;;;;;;5035245;28;20040;-74
2022/04/18 05:58:57;;;;;;;3.20;1.60;;;4.90;63.50;;;;;;5038367;28;20037;-72
2022/04/18 06:01:23;;;;;;;2.72;1.70;;;5.00;63.60;;;;;;5041805;28;20567;-71
2022/04/18 06:03:49;;;;;;;4.20;1.73;;;5.00;63.50;;;;;;5008223;28;20071;-71
2022/04/18 06:06:14;;;;;;;5.65;3.00;;;5.10;63.40;;;;;;4990011;28;20452;-72
2022/04/18 06:08:40;;;;;;;7.95;3.22;;;5.20;63.40;;;;;;5001802;28;20381;-71
2022/04/18 06:11:06;;;;;;;7.25;2.83;;;5.20;63.40;;;;;;5033499;28;20041;-72
2022/04/18 06:13:31;;;;;;;7.82;2.78;;;5.30;63.60;;;;;;5024944;28;20033;-70
2022/04/18 06:15:58;;;;;;;4.88;2.75;;;5.40;63.50;;;;;;4983629;28;20126;-71
2022/04/18 06:18:24;;;;;;;3.13;2.40;;;5.50;63.60;;;;;;5008735;28;20061;-70
2022/04/18 06:20:49;;;;;;;4.10;2.38;;;5.60;63.60;;;;;;5016928;28;20088;-72
2022/04/18 06:23:18;;;;;;;6.80;2.63;;;5.70;63.40;;;;;;5039168;28;20064;-70
2022/04/18 06:25:44;;;;;;;4.15;2.30;;;5.70;63.40;;;;;;5017478;28;20155;-71
2022/04/18 06:28:09;;;;;;;4.75;2.38;;;5.80;63.30;;;;;;5024677;28;20120;-71
2022/04/18 06:30:35;;;;;;;8.43;2.75;;;6.00;63.20;;;;;;5018074;28;20087;-71
2022/04/18 06:33:00;;;;;;;5.80;3.00;;;6.10;63.10;;;;;;5043644;28;20047;-71
2022/04/18 06:35:26;;;;;;;6.00;2.30;;;6.20;63.10;;;;;;5004669;28;20044;-71
2022/04/18 06:37:51;;;;;;;2.92;2.25;;;6.30;63.10;;;;;;5025793;28;20475;-72
2022/04/18 06:40:17;;;;;;;3.67;2.30;;;6.50;63.00;;;;;;5027693;28;20029;-72
2022/04/18 06:42:42;;;;;;;7.00;2.15;;;6.60;63.60;;;;;;5048146;28;20029;-72
2022/04/18 06:45:08;;;;;;;3.10;1.80;;;6.80;62.70;;;;;;5027089;28;20033;-71
2022/04/18 06:47:34;;;;;;;4.40;2.03;;;6.90;62.60;;;;;;5043203;28;20442;-72
2022/04/18 06:50:00;;;;;;;2.33;1.75;;;7.10;62.40;;;;;;5037070;28;20036;-71
2022/04/18 06:52:25;;;;;;;2.50;1.98;;;7.20;62.20;;;;;;5042979;28;20033;-71
2022/04/18 06:54:51;;;;;;;2.35;1.60;;;7.40;62.10;;;;;;5017057;28;20030;-72
2022/04/18 06:57:16;;;;;;;3.88;2.08;;;7.50;61.80;;;;;;5031989;28;20033;-72
2022/04/18 06:59:42;;;;;;;3.60;2.13;;;7.70;61.60;;;;;;5038092;28;20199;-71
2022/04/18 07:02:07;;;;;;;3.60;1.63;;;7.90;61.50;;;;;;5028278;28;20033;-72
2022/04/18 07:04:33;;;;;;;3.05;1.80;;;8.00;61.30;;;;;;5026626;28;20035;-72
2022/04/18 07:06:59;;;;;;;3.85;1.85;;;8.20;61.10;;;;;;5042169;28;20055;-72
2022/04/18 07:09:24;;;;;;;2.90;1.90;;;8.40;60.90;;;;;;5022534;28;20040;-72
2022/04/18 07:11:51;;;;;;;5.45;2.35;;;8.50;60.70;;;;;;5038164;28;20041;-72
2022/04/18 07:14:16;;;;;;;2.33;1.75;;;8.70;60.50;;;;;;5042413;28;20033;-72
2022/04/18 07:16:42;;;;;;;4.85;1.80;;;8.90;60.30;;;;;;5022824;28;20602;-72
2022/04/18 07:19:08;;;;;;;4.50;1.55;;;9.00;60.00;;;;;;5054997;28;20549;-71
2022/04/18 07:21:33;;;;;;;4.70;2.20;;;9.30;59.90;;;;;;5027487;28;20032;-72
2022/04/18 07:23:59;;;;;;;1.92;1.67;;;9.40;59.60;;;;;;5060168;28;20040;-72
2022/04/18 07:26:24;;;;;;;1.98;1.52;;;9.60;59.50;;;;;;5061915;28;20106;-72
2022/04/18 07:28:50;;;;;;;4.05;2.17;;;9.80;59.30;;;;;;5042964;28;20033;-72
2022/04/18 07:31:15;;;;;;;3.53;1.98;;;9.90;59.10;;;;;;5006943;28;20652;-72
2022/04/18 07:33:41;;;;;;;3.22;1.73;;;10.10;59.00;;;;;;5019857;28;20432;-72
2022/04/18 07:36:07;;;;;;;6.20;2.10;;;10.30;58.70;;;;;;5045620;28;20131;-72
2022/04/18 07:38:51;;;;;;;3.35;1.73;;;10.50;58.60;;;;;;5012368;28;20134;-72
2022/04/18 07:41:17;;;;;;;2.55;1.90;;;10.70;58.30;;;;;;5056636;28;20047;-72
2022/04/18 07:43:42;;;;;;;2.17;1.70;;;10.90;58.10;;;;;;5025417;28;20041;-72
2022/04/18 07:46:08;;;;;;;1.55;1.33;;;11.10;57.90;;;;;;5018297;28;20090;-72
2022/04/18 07:48:34;;;;;;;3.65;1.80;;;11.20;57.50;;;;;;5033297;28;20116;-71
2022/04/18 07:53:43;;;;;;;2.72;1.58;;;11.60;57.20;;;;;;5020416;28;20040;-73
2022/04/18 07:56:09;;;;;;;2.60;1.83;;;11.80;56.90;;;;;;5000753;28;20036;-73
2022/04/18 07:58:34;;;;;;;4.13;1.90;;;12.00;56.70;;;;;;5043326;28;20123;-72
2022/04/18 08:01:00;;;;;;;4.05;1.80;;;12.20;56.40;;;;;;5047456;28;20024;-72
2022/04/18 08:03:26;;;;;;;1.85;1.48;;;12.40;56.00;;;;;;5034003;28;20045;-72
2022/04/18 08:05:53;;;;;;;2.00;1.30;;;12.60;55.60;;;;;;5060818;28;20129;-72
2022/04/18 08:08:19;;;;;;;2.47;1.60;;;12.80;55.20;;;;;;5027870;28;20062;-73
2022/04/18 08:10:44;;;;;;;1.90;1.70;;;13.00;55.00;;;;;;5032738;28;20493;-72
2022/04/18 08:13:10;;;;;;;2.40;1.50;;;13.20;54.60;;;;;;5009437;28;20669;-72
2022/04/18 08:15:35;;;;;;;2.65;1.60;;;13.40;54.20;;;;;;5029714;28;21013;-72
2022/04/18 08:18:01;;;;;;;1.77;1.38;;;13.60;53.90;;;;;;5033419;28;20112;-72
2022/04/18 08:20:26;;;;;;;2.30;1.58;;;13.80;53.70;;;;;;5030770;28;20029;-73
2022/04/18 08:22:52;;;;;;;4.35;2.20;;;14.00;53.40;;;;;;5009715;28;20040;-73
2022/04/18 08:25:17;;;;;;;2.08;1.42;;;14.10;53.00;;;;;;5024959;28;20025;-73
2022/04/18 08:27:43;;;;;;;2.28;1.50;;;14.30;52.60;;;;;;5029374;28;20040;-73
2022/04/18 08:30:09;;;;;;;2.78;1.42;;;14.50;52.20;;;;;;5059043;28;20049;-73
2022/04/18 08:32:40;;;;;;;3.75;1.55;;;14.70;51.90;;;;;;5012302;28;20124;-73
2022/04/18 08:35:06;;;;;;;1.55;1.15;;;14.90;51.10;;;;;;5057597;28;20049;-73
2022/04/18 08:37:34;;;;;;;2.70;1.40;;;15.10;51.70;;;;;;5041089;28;20641;-73
2022/04/18 08:40:03;;;;;;;4.13;1.50;;;15.20;51.30;;;;;;5030671;28;20056;-72
2022/04/18 08:42:32;;;;;;;1.95;1.55;;;15.40;50.00;;;;;;5033387;28;20527;-72
2022/04/18 08:44:57;;;;;;;4.47;1.15;;;15.50;49.60;;;;;;4998357;28;20501;-72
2022/04/18 08:52:51;;;;;;;2.53;1.27;;;15.90;48.90;;;;;;5042220;28;20048;-74
2022/04/18 08:55:17;;;;;;;2.38;1.73;;;16.20;48.50;;;;;;5017348;28;20033;-73
2022/04/18 08:57:43;;;;;;;10.80;1.50;;;16.40;48.20;;;;;;5055161;28;20063;-72
2022/04/18 09:00:09;;;;;;;1.58;1.23;;;16.60;47.80;;;;;;5007427;28;20081;-73
2022/04/18 09:02:35;;;;;;;3.05;1.40;;;16.80;47.50;;;;;;5014340;28;20147;-75
2022/04/18 09:05:00;;;;;;;2.45;1.38;;;17.00;47.20;;;;;;5031017;28;20112;-74
2022/04/18 09:07:26;;;;;;;3.40;1.27;;;17.20;46.80;;;;;;5032716;28;20462;-74
2022/04/18 09:09:55;;;;;;;1.77;1.40;;;17.50;46.40;;;;;;5012601;28;20032;-73
2022/04/18 09:12:22;;;;;;;2.10;1.50;;;17.70;45.60;;;;;;5008135;28;20052;-73
2022/04/18 09:14:48;;;;;;;2.42;1.45;;;17.90;45.10;;;;;;5058023;28;20116;-74
2022/04/18 09:17:29;;;;;;;1.27;1.17;;;18.00;44.60;;;;;;5023846;28;20028;-73
2022/04/18 09:20:07;;;;;;;2.50;1.58;;;18.30;43.80;;;;;;5027118;28;20049;-74
2022/04/18 09:22:45;;;;;;;2.42;1.42;;;18.50;43.70;;;;;;5027796;28;20041;-74
2022/04/18 09:25:21;;;;;;;1.58;1.05;;;18.70;43.00;;;;;;5055248;28;20033;-74
2022/04/18 09:27:57;;;;;;;2.58;1.60;;;18.90;42.90;;;;;;5017985;28;20041;-73
2022/04/18 09:30:23;;;;;;;2.95;1.60;;;19.10;42.40;;;;;;4980727;28;20052;-73
2022/04/18 09:33:07;;;;;;;2.45;1.55;;;19.30;42.70;;;;;;5030361;28;20040;-73
2022/04/18 09:35:33;;;;;;;2.20;1.30;;;19.60;41.70;;;;;;5039150;28;20569;-73
2022/04/18 09:38:00;;;;;;;3.90;1.10;;;19.80;41.90;;;;;;5005949;28;20063;-73
2022/04/18 09:40:26;;;;;;;2.25;1.40;;;20.00;41.60;;;;;;5023133;28;20437;-75
2022/04/18 09:42:53;;;;;;;3.10;1.70;;;20.30;41.30;;;;;;5056342;28;20040;-74
2022/04/18 09:45:18;;;;;;;1.85;1.05;;;20.50;40.90;;;;;;5039839;28;20037;-75
2022/04/18 09:47:44;;;;;;;1.15;1.00;;;20.70;40.40;;;;;;5022219;28;20074;-74
2022/04/18 09:53:03;;;;;;;1.77;1.08;;;21.00;39.20;;;;;;5009628;28;20163;-73
2022/04/18 09:55:29;;;;;;;2.35;1.27;;;21.20;39.40;;;;;;5047460;28;20072;-75
2022/04/18 09:58:02;;;;;;;1.27;1.17;;;21.40;39.20;;;;;;5056182;28;20143;-73
2022/04/18 10:00:28;;;;;;;2.15;1.38;;;21.50;38.70;;;;;;5003956;28;20041;-74
2022/04/18 10:02:53;;;;;;;2.10;1.00;;;21.70;38.50;;;;;;5026104;28;20493;-74
2022/04/18 10:05:19;;;;;;;2.20;1.10;;;21.80;38.00;;;;;;5019705;28;20040;-74
2022/04/18 10:07:47;;;;;;;1.70;1.13;;;22.00;37.70;;;;;;5055822;28;20572;-74
2022/04/18 10:10:13;;;;;;;1.90;1.33;;;22.10;37.40;;;;;;5015509;28;20108;-73
2022/04/18 10:12:38;;;;;;;2.15;1.05;;;22.20;37.00;;;;;;4992919;28;20501;-75
2022/04/18 10:15:04;;;;;;;2.13;1.58;;;22.20;36.80;;;;;;5035320;28;20095;-74
2022/04/18 10:17:30;;;;;;;1.73;1.40;;;22.40;36.50;;;;;;4997041;28;20029;-73
2022/04/18 10:20:27;;;;;;;1.98;1.17;;;22.50;36.00;;;;;;5022553;28;20044;-73
2022/04/18 10:23:03;;;;;;;2.13;1.20;;;22.60;35.20;;;;;;5027008;28;20033;-74
2022/04/18 10:25:53;;;;;;;2.13;1.20;;;22.80;36.50;;;;;;5038978;28;20041;-75
2022/04/18 10:28:20;;;;;;;1.65;1.10;;;23.00;35.50;;;;;;5032181;28;20032;-75
2022/04/18 10:30:54;;;;;;;2.55;1.40;;;23.10;35.50;;;;;;5023706;28;20650;-75
2022/04/18 10:33:19;;;;;;;2.95;1.20;;;23.20;35.20;;;;;;5036043;28;20033;-74
2022/04/18 10:35:55;;;;;;;2.35;0.95;;;23.30;35.10;;;;;;5023302;28;20033;-74
2022/04/18 10:38:24;;;;;;;1.67;1.30;;;23.50;34.20;;;;;;5003824;28;20049;-74
2022/04/18 10:40:49;;;;;;;1.70;1.45;;;23.70;34.40;;;;;;5027928;28;20029;-73
2022/04/18 10:43:15;;;;;;;1.05;0.95;;;23.80;34.40;;;;;;5015677;28;20095;-76
2022/04/18 10:45:40;;;;;;;1.52;1.23;;;23.70;33.90;;;;;;5021507;28;20052;-73
2022/04/18 10:48:07;;;;;;;2.42;1.35;;;23.70;33.70;;;;;;5051684;28;20033;-74
2022/04/18 10:50:43;;;;;;;2.38;1.17;;;23.80;33.50;;;;;;5043766;28;20111;-74
2022/04/18 10:53:36;;;;;;;2.67;1.25;;;23.90;33.60;;;;;;5033424;28;20530;-74
2022/04/18 10:56:02;;;;;;;1.42;1.05;;;24.10;32.90;;;;;;5048247;28;20041;-74
2022/04/18 10:58:30;;;;;;;3.83;1.10;;;24.20;33.20;;;;;;5027778;28;20543;-74
2022/04/18 11:00:59;;;;;;;1.92;1.02;;;24.30;32.90;;;;;;5055534;28;20039;-74
2022/04/18 11:03:46;;;;;;;2.53;0.90;;;24.50;32.80;;;;;;5009365;28;20044;-74
2022/04/18 11:06:18;;;;;;;1.67;1.00;;;24.70;31.70;;;;;;5001465;28;20033;-73
2022/04/18 11:08:59;;;;;;;1.55;1.02;;;24.90;32.00;;;;;;5027366;28;20054;-74
2022/04/18 11:11:32;;;;;;;2.05;1.13;;;25.10;31.30;;;;;;5024755;28;20799;-74
2022/04/18 11:13:57;;;;;;;2.10;1.25;;;25.30;32.00;;;;;;5038781;28;20090;-74
2022/04/18 11:16:23;;;;;;;1.52;1.20;;;25.40;31.80;;;;;;5015727;28;20036;-75
2022/04/18 11:19:07;;;;;;;3.35;1.40;;;25.60;31.60;;;;;;5036738;28;20036;-74
2022/04/18 11:21:58;;;;;;;1.77;1.17;;;25.70;30.10;;;;;;5057287;28;20041;-75
2022/04/18 11:24:49;;;;;;;1.58;0.90;;;25.60;30.20;;;;;;5023822;28;20714;-74
2022/04/18 11:27:15;;;;;;;1.90;0.70;;;25.70;30.30;;;;;;5049309;28;20041;-75
2022/04/18 11:29:55;;;;;;;1.17;1.00;;;25.70;31.00;;;;;;5041925;28;20025;-74
2022/04/18 11:32:25;;;;;;;2.20;1.10;;;25.70;30.80;;;;;;5036056;28;20057;-74
2022/04/18 11:34:52;;;;;;;2.05;0.75;;;25.80;31.20;;;;;;5044914;28;20049;-74
2022/04/18 11:37:25;;;;;;;1.63;1.00;;;25.90;30.40;;;;;;5042317;28;20045;-74
2022/04/18 11:39:55;;;;;;;1.42;0.90;;;26.00;29.70;;;;;;5026611;28;20512;-74
2022/04/18 11:42:25;;;;;;;1.60;1.20;;;26.10;30.00;;;;;;5031980;28;20041;-75
2022/04/18 11:44:55;;;;;;;3.95;1.20;;;26.20;29.90;;;;;;5041918;28;20527;-75
2022/04/18 11:47:23;;;;;;;2.53;1.10;;;26.30;29.60;;;;;;5024298;28;20036;-75
2022/04/18 11:50:00;;;;;;;2.67;1.13;;;26.20;29.50;;;;;;5044894;28;20053;-74
2022/04/18 11:52:26;;;;;;;1.33;0.90;;;26.20;29.40;;;;;;5031776;28;20041;-75
2022/04/18 11:54:52;;;;;;;0.70;0.70;;;26.30;29.60;;;;;;5025206;28;20076;-74
2022/04/18 11:57:18;;;;;;;0.70;0.70;;;26.30;29.40;;;;;;5039638;28;20075;-74
2022/04/18 11:59:43;;;;;;;2.85;1.10;;;26.40;29.30;;;;;;5045928;28;21473;-74
2022/04/18 12:07:38;;;;;;;2.17;1.00;;;26.70;29.10;;;;;;5039207;28;20139;-72
2022/04/18 12:10:24;;;;;;;2.67;0.85;;;26.70;28.90;;;;;;5049691;28;20509;-73
2022/04/18 12:12:49;;;;;;;1.77;1.10;;;26.60;27.90;;;;;;5047816;28;20045;-73
2022/04/18 12:15:15;;;;;;;1.52;0.90;;;26.70;28.70;;;;;;5034880;28;20166;-72
2022/04/18 12:17:41;;;;;;;2.03;1.10;;;26.70;28.60;;;;;;5030849;28;20560;-72
2022/04/18 12:20:23;;;;;;;2.55;1.30;;;26.80;28.60;;;;;;5051428;28;20039;-73
2022/04/18 12:22:53;;;;;;;2.15;0.98;;;26.80;27.90;;;;;;5060495;28;20124;-73
2022/04/18 12:25:22;;;;;;;1.23;0.60;;;26.90;28.20;;;;;;5040647;28;20040;-76
2022/04/18 12:27:48;;;;;;;2.00;0.93;;;27.00;28.30;;;;;;5013850;28;20033;-73
2022/04/18 12:30:13;;;;;;;1.30;0.88;;;27.10;28.40;;;;;;5008064;28;20039;-74
2022/04/18 12:32:39;;;;;;;1.60;1.00;;;27.20;28.40;;;;;;5025241;28;20041;-73
2022/04/18 12:35:05;;;;;;;1.00;0.73;;;27.50;28.40;;;;;;5008396;28;20151;-73
2022/04/18 12:37:31;;;;;;;1.02;0.80;;;27.60;28.10;;;;;;5021920;28;20116;-74
2022/04/18 12:40:12;;;;;;;1.73;0.60;;;27.70;28.00;;;;;;5021069;28;20933;-73
2022/04/18 12:42:37;;;;;;;;;;;27.70;27.20;;;;;;5035454;28;20045;-74
2022/04/18 12:45:03;;;;;;;1.02;0.63;;;27.70;27.80;;;;;;5014305;28;19931;-73
2022/04/18 12:47:31;;;;;;;1.77;0.70;;;27.70;28.00;;;;;;5026696;28;20145;-73
2022/04/18 12:50:06;;;;;;;1.10;0.88;;;27.70;27.80;;;;;;5031698;28;20048;-74
2022/04/18 12:52:32;;;;;;;2.88;1.00;;;27.80;27.30;;;;;;5027407;28;20081;-75
2022/04/18 12:55:05;;;;;;;1.35;0.90;;;27.80;27.60;;;;;;5040875;28;20080;-74
2022/04/18 12:57:31;;;;;;;1.52;0.73;;;27.80;27.10;;;;;;5038122;28;20037;-73
2022/04/18 13:00:12;;;;;;;1.13;0.80;;;27.80;27.20;;;;;;5003287;28;20147;-73
2022/04/18 13:02:39;;;;;;;1.25;0.70;;;27.90;26.60;;;;;;5010268;28;20043;-73
2022/04/18 13:05:05;;;;;;;1.60;1.00;;;27.90;27.10;;;;;;5029233;28;20048;-74
2022/04/18 13:07:30;;;;;;;0.73;0.70;;;28.00;26.90;;;;;;5038797;28;20120;-74
2022/04/18 13:10:03;;;;;;;0.82;0.80;;;28.00;26.80;;;;;;5015219;28;20063;-73
2022/04/18 13:12:30;;;;;;;0.93;0.70;;;28.10;27.10;;;;;;5030144;28;20037;-74
2022/04/18 13:15:02;;;;;;;1.48;0.80;;;28.10;26.60;;;;;;5033998;28;20029;-73
2022/04/18 13:17:28;;;;;;;1.13;0.68;;;27.90;26.40;;;;;;5010188;28;20033;-74
2022/04/18 13:19:54;;;;;;;1.00;0.70;;;27.80;26.30;;;;;;5028186;28;20037;-73
2022/04/18 13:22:19;;;;;;;1.15;0.68;;;27.80;26.30;;;;;;5006001;28;20088;-73